sensor_id;sensor_type;location;lat;lon;timestamp;pressure;altitude;pressure_sealevel;temperature;humidity
58662;BME280;44432;49.786;22.760;2022-08-19T00:00:12;99041.86;;;19.17;80.07
58662;BME280;44432;49.786;22.760;2022-08-19T00:03:03;99044.56;;;19.12;80.32
58662;BME280;44432;49.786;22.760;2022-08-19T00:05:36;99040.50;;;19.08;80.42
58662;BME280;44432;49.786;22.760;2022-08-19T00:08:06;99038.11;;;19.05;80.63
58662;BME280;44432;49.786;22.760;2022-08-19T00:10:37;99040.67;;;19.03;80.85
58662;BME280;44432;49.786;22.760;2022-08-19T00:13:07;99036.36;;;19.00;81.01
58662;BME280;44432;49.786;22.760;2022-08-19T00:15:38;99040.86;;;18.98;81.00
58662;BME280;44432;49.786;22.760;2022-08-19T00:18:09;99039.64;;;18.95;81.09
58662;BME280;44432;49.786;22.760;2022-08-19T00:20:39;99040.83;;;18.92;81.31
58662;BME280;44432;49.786;22.760;2022-08-19T00:23:11;99038.70;;;18.90;81.42
58662;BME280;44432;49.786;22.760;2022-08-19T00:25:41;99030.83;;;18.89;81.62
58662;BME280;44432;49.786;22.760;2022-08-19T00:28:12;99035.98;;;18.89;81.72
58662;BME280;44432;49.786;22.760;2022-08-19T00:30:42;99036.34;;;18.90;81.77
58662;BME280;44432;49.786;22.760;2022-08-19T00:33:13;99039.77;;;18.88;81.79
58662;BME280;44432;49.786;22.760;2022-08-19T00:35:45;99040.15;;;18.85;81.79
58662;BME280;44432;49.786;22.760;2022-08-19T00:38:16;99040.11;;;18.81;81.87
58662;BME280;44432;49.786;22.760;2022-08-19T00:40:47;99047.82;;;18.80;82.00
58662;BME280;44432;49.786;22.760;2022-08-19T00:43:20;99051.64;;;18.77;82.14
58662;BME280;44432;49.786;22.760;2022-08-19T00:45:52;99056.13;;;18.77;82.28
58662;BME280;44432;49.786;22.760;2022-08-19T00:48:23;99053.83;;;18.75;82.33
58662;BME280;44432;49.786;22.760;2022-08-19T00:50:54;99051.75;;;18.72;82.43
58662;BME280;44432;49.786;22.760;2022-08-19T00:53:28;99052.69;;;18.71;82.51
58662;BME280;44432;49.786;22.760;2022-08-19T00:56:00;99049.21;;;18.70;82.54
58662;BME280;44432;49.786;22.760;2022-08-19T00:58:33;99048.67;;;18.68;82.61
58662;BME280;44432;49.786;22.760;2022-08-19T01:01:06;99041.41;;;18.66;82.60
58662;BME280;44432;49.786;22.760;2022-08-19T01:03:37;99038.89;;;18.65;82.59
58662;BME280;44432;49.786;22.760;2022-08-19T01:06:08;99036.13;;;18.64;82.68
58662;BME280;44432;49.786;22.760;2022-08-19T01:08:39;99034.46;;;18.62;82.66
58662;BME280;44432;49.786;22.760;2022-08-19T01:11:09;99034.19;;;18.60;82.61
58662;BME280;44432;49.786;22.760;2022-08-19T01:13:40;99033.42;;;18.59;82.64
58662;BME280;44432;49.786;22.760;2022-08-19T01:16:12;99028.39;;;18.59;82.68
58662;BME280;44432;49.786;22.760;2022-08-19T01:18:44;99037.33;;;18.58;82.56
58662;BME280;44432;49.786;22.760;2022-08-19T01:21:18;99037.97;;;18.56;82.68
58662;BME280;44432;49.786;22.760;2022-08-19T01:23:52;99043.16;;;18.55;82.65
58662;BME280;44432;49.786;22.760;2022-08-19T01:26:24;99046.75;;;18.53;82.68
58662;BME280;44432;49.786;22.760;2022-08-19T01:28:55;99045.58;;;18.53;82.69
58662;BME280;44432;49.786;22.760;2022-08-19T01:31:28;99045.90;;;18.50;82.79
58662;BME280;44432;49.786;22.760;2022-08-19T01:34:01;99044.19;;;18.48;82.91
58662;BME280;44432;49.786;22.760;2022-08-19T01:36:35;99044.83;;;18.48;82.92
58662;BME280;44432;49.786;22.760;2022-08-19T01:39:09;99045.42;;;18.47;82.91
58662;BME280;44432;49.786;22.760;2022-08-19T01:41:40;99046.21;;;18.47;82.85
58662;BME280;44432;49.786;22.760;2022-08-19T01:44:11;99045.37;;;18.45;82.82
58662;BME280;44432;49.786;22.760;2022-08-19T01:46:42;99044.95;;;18.42;82.76
58662;BME280;44432;49.786;22.760;2022-08-19T01:49:14;99040.19;;;18.39;82.77
58662;BME280;44432;49.786;22.760;2022-08-19T01:51:45;99040.52;;;18.37;82.87
58662;BME280;44432;49.786;22.760;2022-08-19T01:54:16;99039.45;;;18.35;83.01
58662;BME280;44432;49.786;22.760;2022-08-19T01:56:48;99040.83;;;18.35;82.99
58662;BME280;44432;49.786;22.760;2022-08-19T01:59:22;99041.36;;;18.33;83.01
58662;BME280;44432;49.786;22.760;2022-08-19T02:01:54;99040.46;;;18.32;83.10
58662;BME280;44432;49.786;22.760;2022-08-19T02:04:25;99040.52;;;18.31;83.16
58662;BME280;44432;49.786;22.760;2022-08-19T02:06:56;99045.59;;;18.28;83.18
58662;BME280;44432;49.786;22.760;2022-08-19T02:09:27;99044.89;;;18.27;83.34
58662;BME280;44432;49.786;22.760;2022-08-19T02:11:58;99040.15;;;18.25;83.37
58662;BME280;44432;49.786;22.760;2022-08-19T02:14:28;99041.16;;;18.25;83.41
58662;BME280;44432;49.786;22.760;2022-08-19T02:16:59;99038.17;;;18.23;83.43
58662;BME280;44432;49.786;22.760;2022-08-19T02:19:30;99037.90;;;18.21;83.39
58662;BME280;44432;49.786;22.760;2022-08-19T02:22:02;99032.83;;;18.19;83.31
58662;BME280;44432;49.786;22.760;2022-08-19T02:24:33;99029.35;;;18.15;83.34
58662;BME280;44432;49.786;22.760;2022-08-19T02:27:04;99028.98;;;18.14;83.41
58662;BME280;44432;49.786;22.760;2022-08-19T02:29:34;99025.77;;;18.11;83.35
58662;BME280;44432;49.786;22.760;2022-08-19T02:32:06;99024.01;;;18.09;83.30
58662;BME280;44432;49.786;22.760;2022-08-19T02:34:36;99025.29;;;18.02;83.12
58662;BME280;44432;49.786;22.760;2022-08-19T02:37:07;99027.80;;;17.93;83.22
58662;BME280;44432;49.786;22.760;2022-08-19T02:39:57;99021.92;;;17.87;83.50
58662;BME280;44432;49.786;22.760;2022-08-19T02:42:28;99022.34;;;17.82;83.68
58662;BME280;44432;49.786;22.760;2022-08-19T02:44:59;99022.45;;;17.78;83.98
58662;BME280;44432;49.786;22.760;2022-08-19T02:47:30;99022.70;;;17.76;84.18
58662;BME280;44432;49.786;22.760;2022-08-19T02:50:02;99026.17;;;17.72;84.20
58662;BME280;44432;49.786;22.760;2022-08-19T02:52:34;99026.77;;;17.68;84.25
58662;BME280;44432;49.786;22.760;2022-08-19T02:55:07;99025.05;;;17.63;84.36
58662;BME280;44432;49.786;22.760;2022-08-19T02:57:38;99027.01;;;17.63;84.62
58662;BME280;44432;49.786;22.760;2022-08-19T03:00:10;99024.17;;;17.62;84.69
58662;BME280;44432;49.786;22.760;2022-08-19T03:02:42;99026.80;;;17.62;84.85
58662;BME280;44432;49.786;22.760;2022-08-19T03:05:12;99029.64;;;17.65;84.90
58662;BME280;44432;49.786;22.760;2022-08-19T03:07:43;99029.61;;;17.67;84.93
58662;BME280;44432;49.786;22.760;2022-08-19T03:10:14;99028.89;;;17.70;84.94
58662;BME280;44432;49.786;22.760;2022-08-19T03:12:44;99025.90;;;17.72;84.79
58662;BME280;44432;49.786;22.760;2022-08-19T03:15:15;99028.41;;;17.74;84.84
58662;BME280;44432;49.786;22.760;2022-08-19T03:17:46;99032.52;;;17.74;84.79
58662;BME280;44432;49.786;22.760;2022-08-19T03:20:17;99033.48;;;17.74;84.68
58662;BME280;44432;49.786;22.760;2022-08-19T03:22:47;99036.91;;;17.73;84.56
58662;BME280;44432;49.786;22.760;2022-08-19T03:25:18;99037.44;;;17.71;84.53
58662;BME280;44432;49.786;22.760;2022-08-19T03:27:48;99032.48;;;17.69;84.53
58662;BME280;44432;49.786;22.760;2022-08-19T03:30:19;99032.06;;;17.67;84.46
58662;BME280;44432;49.786;22.760;2022-08-19T03:32:50;99030.41;;;17.67;84.51
58662;BME280;44432;49.786;22.760;2022-08-19T03:35:21;99034.73;;;17.67;84.71
58662;BME280;44432;49.786;22.760;2022-08-19T03:37:52;99034.45;;;17.69;84.61
58662;BME280;44432;49.786;22.760;2022-08-19T03:40:22;99038.98;;;17.71;84.66
58662;BME280;44432;49.786;22.760;2022-08-19T03:42:53;99038.83;;;17.71;84.62
58662;BME280;44432;49.786;22.760;2022-08-19T03:45:23;99041.28;;;17.74;84.59
58662;BME280;44432;49.786;22.760;2022-08-19T03:47:54;99035.52;;;17.75;84.59
58662;BME280;44432;49.786;22.760;2022-08-19T03:50:25;99038.19;;;17.75;84.60
58662;BME280;44432;49.786;22.760;2022-08-19T03:52:56;99037.92;;;17.75;84.50
58662;BME280;44432;49.786;22.760;2022-08-19T03:55:26;99036.38;;;17.73;84.48
58662;BME280;44432;49.786;22.760;2022-08-19T03:57:57;99038.52;;;17.73;84.50
58662;BME280;44432;49.786;22.760;2022-08-19T04:00:27;99036.11;;;17.74;84.37
58662;BME280;44432;49.786;22.760;2022-08-19T04:02:58;99033.81;;;17.75;84.54
58662;BME280;44432;49.786;22.760;2022-08-19T04:05:29;99036.86;;;17.77;84.36
58662;BME280;44432;49.786;22.760;2022-08-19T04:08:00;99039.42;;;17.78;84.46
58662;BME280;44432;49.786;22.760;2022-08-19T04:10:30;99044.88;;;17.81;84.50
58662;BME280;44432;49.786;22.760;2022-08-19T04:13:01;99040.50;;;17.85;84.55
58662;BME280;44432;49.786;22.760;2022-08-19T04:15:33;99037.84;;;17.89;84.43
58662;BME280;44432;49.786;22.760;2022-08-19T04:18:11;99037.84;;;17.94;84.38
58662;BME280;44432;49.786;22.760;2022-08-19T04:20:47;99035.02;;;17.99;84.18
58662;BME280;44432;49.786;22.760;2022-08-19T04:23:18;99041.06;;;18.04;84.22
58662;BME280;44432;49.786;22.760;2022-08-19T04:25:49;99047.57;;;18.09;84.08
58662;BME280;44432;49.786;22.760;2022-08-19T04:28:20;99047.04;;;18.13;84.01
58662;BME280;44432;49.786;22.760;2022-08-19T04:30:53;99046.77;;;18.15;83.78
58662;BME280;44432;49.786;22.760;2022-08-19T04:33:23;99045.59;;;18.18;83.76
58662;BME280;44432;49.786;22.760;2022-08-19T04:35:54;99041.75;;;18.20;83.80
58662;BME280;44432;49.786;22.760;2022-08-19T04:38:27;99043.14;;;18.25;83.76
58662;BME280;44432;49.786;22.760;2022-08-19T04:40:57;99042.39;;;18.30;83.80
58662;BME280;44432;49.786;22.760;2022-08-19T04:43:46;99048.05;;;18.40;83.84
58662;BME280;44432;49.786;22.760;2022-08-19T04:46:18;99051.62;;;18.49;83.83
58662;BME280;44432;49.786;22.760;2022-08-19T04:48:49;99048.51;;;18.57;83.75
58662;BME280;44432;49.786;22.760;2022-08-19T04:51:19;99051.30;;;18.66;83.60
58662;BME280;44432;49.786;22.760;2022-08-19T04:53:50;99055.76;;;18.75;83.42
58662;BME280;44432;49.786;22.760;2022-08-19T04:56:22;99050.91;;;18.82;83.28
58662;BME280;44432;49.786;22.760;2022-08-19T04:58:56;99053.20;;;18.91;83.09
58662;BME280;44432;49.786;22.760;2022-08-19T05:01:29;99051.35;;;19.01;83.02
58662;BME280;44432;49.786;22.760;2022-08-19T05:04:02;99049.98;;;19.08;82.83
58662;BME280;44432;49.786;22.760;2022-08-19T05:06:35;99045.04;;;19.13;82.59
58662;BME280;44432;49.786;22.760;2022-08-19T05:09:06;99041.00;;;19.18;82.50
58662;BME280;44432;49.786;22.760;2022-08-19T05:11:38;99045.31;;;19.23;82.23
58662;BME280;44432;49.786;22.760;2022-08-19T05:14:09;99047.91;;;19.28;82.15
58662;BME280;44432;49.786;22.760;2022-08-19T05:16:41;99049.61;;;19.35;82.02
58662;BME280;44432;49.786;22.760;2022-08-19T05:19:12;99055.52;;;19.41;81.94
58662;BME280;44432;49.786;22.760;2022-08-19T05:22:00;99059.61;;;19.49;81.92
58662;BME280;44432;49.786;22.760;2022-08-19T05:24:48;99064.13;;;19.57;81.77
58662;BME280;44432;49.786;22.760;2022-08-19T05:27:19;99071.41;;;19.68;81.77
58662;BME280;44432;49.786;22.760;2022-08-19T05:29:50;99073.92;;;19.76;81.33
58662;BME280;44432;49.786;22.760;2022-08-19T05:32:20;99075.78;;;19.84;81.18
58662;BME280;44432;49.786;22.760;2022-08-19T05:34:52;99077.27;;;19.95;81.13
58662;BME280;44432;49.786;22.760;2022-08-19T05:37:23;99078.59;;;20.05;80.87
58662;BME280;44432;49.786;22.760;2022-08-19T05:39:56;99074.45;;;20.15;80.60
58662;BME280;44432;49.786;22.760;2022-08-19T05:42:27;99076.00;;;20.22;80.18
58662;BME280;44432;49.786;22.760;2022-08-19T05:44:57;99078.73;;;20.30;79.94
58662;BME280;44432;49.786;22.760;2022-08-19T05:47:28;99081.08;;;20.39;79.90
58662;BME280;44432;49.786;22.760;2022-08-19T05:49:58;99085.42;;;20.48;79.83
58662;BME280;44432;49.786;22.760;2022-08-19T05:52:31;99078.23;;;20.60;79.77
58662;BME280;44432;49.786;22.760;2022-08-19T05:55:01;99077.59;;;20.72;79.80
58662;BME280;44432;49.786;22.760;2022-08-19T05:57:32;99081.11;;;20.85;79.57
58662;BME280;44432;49.786;22.760;2022-08-19T06:00:03;99088.52;;;21.02;79.23
58662;BME280;44432;49.786;22.760;2022-08-19T06:02:37;99084.97;;;21.17;78.89
58662;BME280;44432;49.786;22.760;2022-08-19T06:05:10;99081.02;;;21.30;78.57
58662;BME280;44432;49.786;22.760;2022-08-19T06:07:41;99074.39;;;21.44;78.17
58662;BME280;44432;49.786;22.760;2022-08-19T06:10:12;99078.04;;;21.57;77.64
58662;BME280;44432;49.786;22.760;2022-08-19T06:12:42;99072.93;;;21.69;77.21
58662;BME280;44432;49.786;22.760;2022-08-19T06:15:14;99071.75;;;21.83;77.08
58662;BME280;44432;49.786;22.760;2022-08-19T06:17:45;99069.88;;;21.96;76.59
58662;BME280;44432;49.786;22.760;2022-08-19T06:20:16;99058.78;;;22.06;76.04
58662;BME280;44432;49.786;22.760;2022-08-19T06:22:49;99057.77;;;22.15;75.79
58662;BME280;44432;49.786;22.760;2022-08-19T06:25:20;99058.52;;;22.26;75.40
58662;BME280;44432;49.786;22.760;2022-08-19T06:27:51;99062.02;;;22.36;75.08
58662;BME280;44432;49.786;22.760;2022-08-19T06:30:23;99056.58;;;22.46;74.82
58662;BME280;44432;49.786;22.760;2022-08-19T06:32:53;99063.23;;;22.56;74.21
58662;BME280;44432;49.786;22.760;2022-08-19T06:35:24;99064.73;;;22.66;73.83
58662;BME280;44432;49.786;22.760;2022-08-19T06:37:54;99059.80;;;22.73;73.35
58662;BME280;44432;49.786;22.760;2022-08-19T06:40:25;99058.94;;;22.84;73.09
58662;BME280;44432;49.786;22.760;2022-08-19T06:42:56;99059.16;;;22.93;72.60
58662;BME280;44432;49.786;22.760;2022-08-19T06:45:28;99062.64;;;23.02;72.24
58662;BME280;44432;49.786;22.760;2022-08-19T06:47:59;99054.15;;;23.10;71.92
58662;BME280;44432;49.786;22.760;2022-08-19T06:50:30;99054.20;;;23.18;71.49
58662;BME280;44432;49.786;22.760;2022-08-19T06:53:00;99052.66;;;23.25;71.38
58662;BME280;44432;49.786;22.760;2022-08-19T06:55:32;99059.18;;;23.32;70.95
58662;BME280;44432;49.786;22.760;2022-08-19T06:58:04;99060.73;;;23.38;70.73
58662;BME280;44432;49.786;22.760;2022-08-19T07:00:34;99063.25;;;23.44;70.46
58662;BME280;44432;49.786;22.760;2022-08-19T07:03:05;99063.36;;;23.48;70.30
58662;BME280;44432;49.786;22.760;2022-08-19T07:05:41;99065.58;;;23.57;70.37
58662;BME280;44432;49.786;22.760;2022-08-19T07:08:11;99077.13;;;23.69;70.27
58662;BME280;44432;49.786;22.760;2022-08-19T07:10:45;99080.75;;;23.80;70.18
58662;BME280;44432;49.786;22.760;2022-08-19T07:13:17;99088.58;;;23.93;69.90
58662;BME280;44432;49.786;22.760;2022-08-19T07:15:48;99082.57;;;24.04;69.54
58662;BME280;44432;49.786;22.760;2022-08-19T07:18:20;99084.40;;;24.12;69.22
58662;BME280;44432;49.786;22.760;2022-08-19T07:21:01;99077.01;;;24.24;69.21
58662;BME280;44432;49.786;22.760;2022-08-19T07:23:33;99077.48;;;24.34;69.00
58662;BME280;44432;49.786;22.760;2022-08-19T07:26:07;99073.97;;;24.45;68.62
58662;BME280;44432;49.786;22.760;2022-08-19T07:28:38;99077.20;;;24.56;68.45
58662;BME280;44432;49.786;22.760;2022-08-19T07:31:12;99083.93;;;24.67;68.27
58662;BME280;44432;49.786;22.760;2022-08-19T07:33:43;99088.08;;;24.78;67.79
58662;BME280;44432;49.786;22.760;2022-08-19T07:36:15;99091.91;;;24.87;67.69
58662;BME280;44432;49.786;22.760;2022-08-19T07:38:48;99095.41;;;24.97;67.48
58662;BME280;44432;49.786;22.760;2022-08-19T07:41:20;99097.50;;;25.07;67.31
58662;BME280;44432;49.786;22.760;2022-08-19T07:43:52;99094.52;;;25.20;67.12
58662;BME280;44432;49.786;22.760;2022-08-19T07:46:23;99095.41;;;25.30;66.53
58662;BME280;44432;49.786;22.760;2022-08-19T07:48:53;99095.02;;;25.40;66.31
58662;BME280;44432;49.786;22.760;2022-08-19T07:51:24;99090.08;;;25.50;66.24
58662;BME280;44432;49.786;22.760;2022-08-19T07:53:55;99085.85;;;25.62;65.97
58662;BME280;44432;49.786;22.760;2022-08-19T07:56:25;99078.38;;;25.73;65.64
58662;BME280;44432;49.786;22.760;2022-08-19T07:58:56;99067.59;;;25.86;65.46
58662;BME280;44432;49.786;22.760;2022-08-19T08:01:28;99057.41;;;25.97;65.06
58662;BME280;44432;49.786;22.760;2022-08-19T08:03:59;99055.41;;;26.08;64.51
58662;BME280;44432;49.786;22.760;2022-08-19T08:06:47;99054.08;;;26.19;64.20
58662;BME280;44432;49.786;22.760;2022-08-19T08:09:37;99056.02;;;26.31;64.05
58662;BME280;44432;49.786;22.760;2022-08-19T08:12:11;99050.61;;;26.40;63.58
58662;BME280;44432;49.786;22.760;2022-08-19T08:14:46;99051.13;;;26.49;63.05
58662;BME280;44432;49.786;22.760;2022-08-19T08:17:18;99043.20;;;26.59;62.77
58662;BME280;44432;49.786;22.760;2022-08-19T08:19:49;99036.95;;;26.68;62.36
58662;BME280;44432;49.786;22.760;2022-08-19T08:22:22;99036.63;;;26.78;61.89
58662;BME280;44432;49.786;22.760;2022-08-19T08:25:09;99039.48;;;26.89;61.64
58662;BME280;44432;49.786;22.760;2022-08-19T08:27:42;99039.79;;;27.02;61.59
58662;BME280;44432;49.786;22.760;2022-08-19T08:30:20;99047.25;;;27.15;61.12
58662;BME280;44432;49.786;22.760;2022-08-19T08:32:51;99050.83;;;27.27;60.76
58662;BME280;44432;49.786;22.760;2022-08-19T08:35:23;99058.33;;;27.39;60.50
58662;BME280;44432;49.786;22.760;2022-08-19T08:37:55;99058.94;;;27.50;60.20
58662;BME280;44432;49.786;22.760;2022-08-19T08:40:30;99054.86;;;27.61;59.84
58662;BME280;44432;49.786;22.760;2022-08-19T08:43:19;99059.66;;;27.71;59.42
58662;BME280;44432;49.786;22.760;2022-08-19T08:45:55;99058.41;;;27.81;58.78
58662;BME280;44432;49.786;22.760;2022-08-19T08:48:34;99053.61;;;27.90;58.78
58662;BME280;44432;49.786;22.760;2022-08-19T08:51:09;99048.33;;;28.00;58.23
58662;BME280;44432;49.786;22.760;2022-08-19T08:53:41;99052.39;;;28.10;57.75
58662;BME280;44432;49.786;22.760;2022-08-19T08:56:14;99056.14;;;28.18;57.37
58662;BME280;44432;49.786;22.760;2022-08-19T08:58:51;99053.26;;;28.25;56.76
58662;BME280;44432;49.786;22.760;2022-08-19T09:01:25;99050.40;;;28.33;56.33
58662;BME280;44432;49.786;22.760;2022-08-19T09:03:56;99056.94;;;28.38;55.35
58662;BME280;44432;49.786;22.760;2022-08-19T09:06:31;99056.97;;;28.41;54.95
58662;BME280;44432;49.786;22.760;2022-08-19T09:09:12;99063.11;;;28.46;54.65
58662;BME280;44432;49.786;22.760;2022-08-19T09:11:55;99063.90;;;28.50;54.41
58662;BME280;44432;49.786;22.760;2022-08-19T09:14:35;99055.78;;;28.56;54.36
58662;BME280;44432;49.786;22.760;2022-08-19T09:17:11;99056.33;;;28.63;54.37
58662;BME280;44432;49.786;22.760;2022-08-19T09:19:54;99057.44;;;28.71;54.06
58662;BME280;44432;49.786;22.760;2022-08-19T09:22:26;99064.41;;;28.78;53.96
58662;BME280;44432;49.786;22.760;2022-08-19T09:24:56;99063.23;;;28.85;53.40
58662;BME280;44432;49.786;22.760;2022-08-19T09:27:28;99065.68;;;28.91;53.27
58662;BME280;44432;49.786;22.760;2022-08-19T09:29:59;99060.64;;;28.96;52.96
58662;BME280;44432;49.786;22.760;2022-08-19T09:32:30;99059.98;;;29.00;52.53
58662;BME280;44432;49.786;22.760;2022-08-19T09:35:01;99059.69;;;29.03;52.31
58662;BME280;44432;49.786;22.760;2022-08-19T09:37:32;99059.20;;;29.10;52.37
58662;BME280;44432;49.786;22.760;2022-08-19T09:40:03;99052.96;;;29.18;51.97
58662;BME280;44432;49.786;22.760;2022-08-19T09:42:33;99054.39;;;29.23;51.77
58662;BME280;44432;49.786;22.760;2022-08-19T09:45:05;99061.52;;;29.28;51.36
58662;BME280;44432;49.786;22.760;2022-08-19T09:47:36;99064.73;;;29.31;51.14
58662;BME280;44432;49.786;22.760;2022-08-19T09:50:10;99071.88;;;29.36;50.91
58662;BME280;44432;49.786;22.760;2022-08-19T09:52:42;99074.46;;;29.42;50.87
58662;BME280;44432;49.786;22.760;2022-08-19T09:55:13;99075.61;;;29.43;50.58
58662;BME280;44432;49.786;22.760;2022-08-19T09:57:45;99074.59;;;29.45;50.96
58662;BME280;44432;49.786;22.760;2022-08-19T10:00:16;99073.77;;;29.48;50.64
58662;BME280;44432;49.786;22.760;2022-08-19T10:02:47;99068.27;;;29.52;50.67
58662;BME280;44432;49.786;22.760;2022-08-19T10:05:17;99070.03;;;29.56;50.34
58662;BME280;44432;49.786;22.760;2022-08-19T10:08:05;99066.36;;;29.58;50.37
58662;BME280;44432;49.786;22.760;2022-08-19T10:10:37;99062.15;;;29.63;50.05
58662;BME280;44432;49.786;22.760;2022-08-19T10:13:08;99058.63;;;29.68;49.93
58662;BME280;44432;49.786;22.760;2022-08-19T10:15:39;99052.38;;;29.72;49.74
58662;BME280;44432;49.786;22.760;2022-08-19T10:18:09;99049.57;;;29.77;49.31
58662;BME280;44432;49.786;22.760;2022-08-19T10:20:40;99048.98;;;29.83;49.34
58662;BME280;44432;49.786;22.760;2022-08-19T10:23:10;99055.34;;;29.88;49.54
58662;BME280;44432;49.786;22.760;2022-08-19T10:25:41;99055.52;;;29.91;49.27
58662;BME280;44432;49.786;22.760;2022-08-19T10:28:13;99058.29;;;29.96;48.74
58662;BME280;44432;49.786;22.760;2022-08-19T10:30:43;99063.10;;;30.01;48.42
58662;BME280;44432;49.786;22.760;2022-08-19T10:33:14;99066.42;;;30.05;48.14
58662;BME280;44432;49.786;22.760;2022-08-19T10:35:44;99064.77;;;30.13;47.87
58662;BME280;44432;49.786;22.760;2022-08-19T10:38:15;99064.36;;;30.19;47.78
58662;BME280;44432;49.786;22.760;2022-08-19T10:40:46;99056.98;;;30.22;47.73
58662;BME280;44432;49.786;22.760;2022-08-19T10:43:16;99052.48;;;30.22;47.63
58662;BME280;44432;49.786;22.760;2022-08-19T10:45:53;99050.39;;;30.23;47.56
58662;BME280;44432;49.786;22.760;2022-08-19T10:48:25;99044.29;;;30.25;47.56
58662;BME280;44432;49.786;22.760;2022-08-19T10:50:58;99042.74;;;30.31;47.58
58662;BME280;44432;49.786;22.760;2022-08-19T10:53:46;99038.41;;;30.38;47.20
58662;BME280;44432;49.786;22.760;2022-08-19T10:56:17;99034.43;;;30.40;46.31
58662;BME280;44432;49.786;22.760;2022-08-19T10:59:06;99039.02;;;30.46;45.85
58662;BME280;44432;49.786;22.760;2022-08-19T11:01:36;99030.85;;;30.49;45.25
58662;BME280;44432;49.786;22.760;2022-08-19T11:04:07;99031.11;;;30.53;45.20
58662;BME280;44432;49.786;22.760;2022-08-19T11:06:40;99026.51;;;30.58;45.46
58662;BME280;44432;49.786;22.760;2022-08-19T11:09:12;99025.31;;;30.60;45.69
58662;BME280;44432;49.786;22.760;2022-08-19T11:11:44;99026.85;;;30.63;45.50
58662;BME280;44432;49.786;22.760;2022-08-19T11:14:18;99030.13;;;30.66;45.66
58662;BME280;44432;49.786;22.760;2022-08-19T11:16:50;99029.39;;;30.68;45.19
58662;BME280;44432;49.786;22.760;2022-08-19T11:19:21;99028.95;;;30.72;45.27
58662;BME280;44432;49.786;22.760;2022-08-19T11:21:53;99028.13;;;30.76;44.64
58662;BME280;44432;49.786;22.760;2022-08-19T11:24:25;99025.23;;;30.79;44.21
58662;BME280;44432;49.786;22.760;2022-08-19T11:27:02;99016.47;;;30.81;44.34
58662;BME280;44432;49.786;22.760;2022-08-19T11:29:34;99014.37;;;30.84;44.42
58662;BME280;44432;49.786;22.760;2022-08-19T11:32:08;99016.38;;;30.86;44.41
58662;BME280;44432;49.786;22.760;2022-08-19T11:34:40;99011.89;;;30.88;44.50
58662;BME280;44432;49.786;22.760;2022-08-19T11:37:10;99015.23;;;30.91;44.55
58662;BME280;44432;49.786;22.760;2022-08-19T11:39:41;99010.30;;;30.93;44.36
58662;BME280;44432;49.786;22.760;2022-08-19T11:42:12;99003.55;;;30.97;44.02
58662;BME280;44432;49.786;22.760;2022-08-19T11:45:00;99007.05;;;31.01;43.77
58662;BME280;44432;49.786;22.760;2022-08-19T11:47:32;99005.89;;;31.04;43.86
58662;BME280;44432;49.786;22.760;2022-08-19T11:50:04;99001.27;;;31.07;43.50
58662;BME280;44432;49.786;22.760;2022-08-19T11:52:35;98999.26;;;31.11;43.40
58662;BME280;44432;49.786;22.760;2022-08-19T11:55:07;98999.05;;;31.14;42.88
58662;BME280;44432;49.786;22.760;2022-08-19T11:57:38;98996.52;;;31.19;42.61
58662;BME280;44432;49.786;22.760;2022-08-19T12:00:12;98996.17;;;31.27;42.29
58662;BME280;44432;49.786;22.760;2022-08-19T12:02:43;98995.52;;;31.29;41.46
58662;BME280;44432;49.786;22.760;2022-08-19T12:05:14;98991.04;;;31.31;41.37
58662;BME280;44432;49.786;22.760;2022-08-19T12:07:44;98990.15;;;31.33;41.29
58662;BME280;44432;49.786;22.760;2022-08-19T12:10:15;98992.18;;;31.33;40.75
58662;BME280;44432;49.786;22.760;2022-08-19T12:12:46;98992.77;;;31.35;40.64
58662;BME280;44432;49.786;22.760;2022-08-19T12:15:17;98994.38;;;31.37;41.03
58662;BME280;44432;49.786;22.760;2022-08-19T12:17:47;98996.15;;;31.43;41.36
58662;BME280;44432;49.786;22.760;2022-08-19T12:20:18;98993.34;;;31.47;40.44
58662;BME280;44432;49.786;22.760;2022-08-19T12:22:49;98994.34;;;31.50;39.84
58662;BME280;44432;49.786;22.760;2022-08-19T12:25:20;98998.55;;;31.50;39.83
58662;BME280;44432;49.786;22.760;2022-08-19T12:27:51;98993.80;;;31.49;39.87
58662;BME280;44432;49.786;22.760;2022-08-19T12:30:22;98985.92;;;31.50;38.93
58662;BME280;44432;49.786;22.760;2022-08-19T12:32:53;98988.38;;;31.53;38.07
58662;BME280;44432;49.786;22.760;2022-08-19T12:35:23;98981.96;;;31.55;37.71
58662;BME280;44432;49.786;22.760;2022-08-19T12:37:54;98977.11;;;31.57;37.82
58662;BME280;44432;49.786;22.760;2022-08-19T12:40:25;98976.15;;;31.61;37.97
58662;BME280;44432;49.786;22.760;2022-08-19T12:42:55;98972.91;;;31.62;37.93
58662;BME280;44432;49.786;22.760;2022-08-19T12:45:26;98975.10;;;31.63;37.97
58662;BME280;44432;49.786;22.760;2022-08-19T12:47:57;98969.49;;;31.67;38.07
58662;BME280;44432;49.786;22.760;2022-08-19T12:50:28;98968.73;;;31.71;37.61
58662;BME280;44432;49.786;22.760;2022-08-19T12:52:59;98961.35;;;31.76;37.37
58662;BME280;44432;49.786;22.760;2022-08-19T12:55:30;98961.52;;;31.81;37.14
58662;BME280;44432;49.786;22.760;2022-08-19T12:58:01;98953.52;;;31.82;36.23
58662;BME280;44432;49.786;22.760;2022-08-19T13:00:31;98952.38;;;31.83;36.25
58662;BME280;44432;49.786;22.760;2022-08-19T13:03:02;98951.68;;;31.84;35.74
58662;BME280;44432;49.786;22.760;2022-08-19T13:05:34;98948.51;;;31.85;35.61
58662;BME280;44432;49.786;22.760;2022-08-19T13:08:05;98942.61;;;31.87;35.41
58662;BME280;44432;49.786;22.760;2022-08-19T13:10:36;98939.53;;;31.89;35.56
58662;BME280;44432;49.786;22.760;2022-08-19T13:13:08;98938.73;;;31.93;35.80
58662;BME280;44432;49.786;22.760;2022-08-19T13:15:39;98942.92;;;31.96;35.83